Mamfe, Cameroon
Current Conditions -  °F | °C
As of 5:00 AM on Thursday 29 Jan 2015 (Local Time) from FKKD Reporting Station
Thunderstorm Thunderstorm  
Wind Chill: 26°   Ceiling: 1300
Heat Index: 28°   Visibility: 5mi
Dew Point: 24°   Wind: 0mph
Humidity: 89%   Direction: NA
Pressure: 29.83"   Gusts: NA
Location:  5.77°N, 9.29°E
Report Text: FKKD 290400Z 00000KT 8000 TS BKN013 FEW016CB 26/24 Q1010 BECMG3000 BR
Loading
Personal Weather Stations






























Interactive Weather Map New forecast layout! Learn more

10-Day Weather Forecast

Advertisements
Track Severe Weather on mobile